Portugal Jovem — CUEY8 — position and weather

sailwx.info

Track history (hours):
 
Tides and Currents Weather Stations Pressure Air Temp Water Temp Dewpoint Dewpoint Depression Visibility Wind Speed Wind Dir Waves Ship Positions

Portugal Jovem

Last reported at 2018-Jul-20 16:25 UTC. Time now 2018-Jul-22 17:45 UTC.
Position N 38°56' W 009°27'.

Length 19 m.

Type: Fishing. MMSI: 263411970.

Date/timePositionNaut miles runAvg speedWind from/ knotsBaromVisibWave heightAir tempDewpointWater temp
2018-Jul-20 16:25N 38°56' W 009°27'0 0.3
2018-Jul-20 16:00N 38°56' W 009°27'0 0.2
2018-Jul-20 15:30N 38°56' W 009°27'4 7.1
2018-Jul-20 15:00N 38°59' W 009°27'611.2
2018-Jul-20 14:30N 39°05' W 009°26'7 0.2
2018-Jul-18 19:35N 39°12' W 009°28'1 9.7
2018-Jul-18 19:30N 39°11' W 009°28'7 4.5
2018-Jul-18 17:57N 39°05' W 009°33'2 3.8
2018-Jul-18 17:30N 39°04' W 009°31'4 7.7
2018-Jul-18 17:00N 39°00' W 009°29'3 7.0
2018-Jul-18 16:30N 38°58' W 009°26'3 5.5
2018-Jul-18 16:00N 38°60' W 009°28'510.8
2018-Jul-18 15:30N 39°05' W 009°26'510.6
2018-Jul-18 15:00N 39°10' W 009°24'4 0.2
2018-Jul-17 19:32N 39°14' W 009°23'8 0.7
2018-Jul-17 07:06N 39°06' W 009°26'110.6
2018-Jul-17 06:59N 39°04' W 009°26'510.3
2018-Jul-17 06:30N 38°60' W 009°27'510.1
2018-Jul-17 06:00N 38°55' W 009°28'1 1.1
2018-Jul-17 05:30N 38°54' W 009°28'0 0.3
2018-Jul-17 05:00N 38°54' W 009°28'0 0.1
2018-Jul-17 04:30N 38°54' W 009°28'0 0.8
2018-Jul-17 04:00N 38°54' W 009°27'  
2018-Jul-12 15:04N 39°14' W 009°27'1 3.1
2018-Jul-12 14:50N 39°14' W 009°27'0 0.3
2018-Jul-12 14:28N 39°14' W 009°27'6 0.6
2018-Jul-12 05:15N 39°09' W 009°24'4 8.4
2018-Jul-12 04:46N 39°13' W 009°26'2 0.3
2018-Jul-11 19:50N 39°13' W 009°23'2 3.6
2018-Jul-11 19:20N 39°12' W 009°25'3 8.3
2018-Jul-11 19:00N 39°12' W 009°28'1 1.1
2018-Jul-11 18:30N 39°12' W 009°27'2 0.5
2018-Jul-11 15:07N 39°12' W 009°25'1 0.8
2018-Jul-11 14:10N 39°12' W 009°26'  
Track history (hours):
 
Tides and Currents Weather Stations Pressure Air Temp Water Temp Dewpoint Dewpoint Depression Visibility Wind Speed Wind Dir Waves Ship Positions

Portugal Jovem

Last reported at 2018-Jul-20 16:25 UTC. Time now 2018-Jul-22 17:45 UTC.
Position N 38°56' W 009°27'.

Length 19 m.

Type: Fishing. MMSI: 263411970.

Date/timePositionNaut miles runAvg speedWind from/ knotsBaromVisibWave heightAir tempDewpointWater temp
2018-Jul-20 16:25N 38°56' W 009°27'0 0.3
2018-Jul-20 16:00N 38°56' W 009°27'0 0.2
2018-Jul-20 15:30N 38°56' W 009°27'4 7.1
2018-Jul-20 15:00N 38°59' W 009°27'611.2
2018-Jul-20 14:30N 39°05' W 009°26'7 0.2
2018-Jul-18 19:35N 39°12' W 009°28'1 9.7
2018-Jul-18 19:30N 39°11' W 009°28'7 4.5
2018-Jul-18 17:57N 39°05' W 009°33'2 3.8
2018-Jul-18 17:30N 39°04' W 009°31'4 7.7
2018-Jul-18 17:00N 39°00' W 009°29'3 7.0
2018-Jul-18 16:30N 38°58' W 009°26'3 5.5
2018-Jul-18 16:00N 38°60' W 009°28'510.8
2018-Jul-18 15:30N 39°05' W 009°26'510.6
2018-Jul-18 15:00N 39°10' W 009°24'4 0.2
2018-Jul-17 19:32N 39°14' W 009°23'8 0.7
2018-Jul-17 07:06N 39°06' W 009°26'110.6
2018-Jul-17 06:59N 39°04' W 009°26'510.3
2018-Jul-17 06:30N 38°60' W 009°27'510.1
2018-Jul-17 06:00N 38°55' W 009°28'1 1.1
2018-Jul-17 05:30N 38°54' W 009°28'0 0.3
2018-Jul-17 05:00N 38°54' W 009°28'0 0.1
2018-Jul-17 04:30N 38°54' W 009°28'0 0.8
2018-Jul-17 04:00N 38°54' W 009°27'  
2018-Jul-12 15:04N 39°14' W 009°27'1 3.1
2018-Jul-12 14:50N 39°14' W 009°27'0 0.3
2018-Jul-12 14:28N 39°14' W 009°27'6 0.6
2018-Jul-12 05:15N 39°09' W 009°24'4 8.4
2018-Jul-12 04:46N 39°13' W 009°26'2 0.3
2018-Jul-11 19:50N 39°13' W 009°23'2 3.6
2018-Jul-11 19:20N 39°12' W 009°25'3 8.3
2018-Jul-11 19:00N 39°12' W 009°28'1 1.1
2018-Jul-11 18:30N 39°12' W 009°27'2 0.5
2018-Jul-11 15:07N 39°12' W 009°25'1 0.8
2018-Jul-11 14:10N 39°12' W 009°26'  

Dump ship's entire track history